Time;durP1;ratioP1;P1;durP2;ratioP2;P2;SDS_P1;SDS_P2;PMS_P1;PMS_P2;Temp;Humidity;BMP_temperature;BMP_pressure;BME280_temperature;BME280_humidity;BME280_pressure;Samples;Min_cycle;Max_cycle;Signal;HPM_P1;HPM_P2
2021/07/05 00:00:19;;;;;;;8.77;7.82;;;22.40;96.70;;;;;;5008512;28;20474;-73
2021/07/05 00:02:47;;;;;;;9.48;7.38;;;22.40;96.70;;;;;;5004753;28;20056;-74
2021/07/05 00:05:15;;;;;;;10.63;8.02;;;22.40;96.70;;;;;;5004862;28;20042;-73
2021/07/05 00:07:47;;;;;;;9.27;8.32;;;22.30;96.70;;;;;;5008666;28;20042;-73
2021/07/05 00:10:17;;;;;;;9.48;7.03;;;22.30;96.70;;;;;;5006072;28;20144;-74
2021/07/05 00:12:47;;;;;;;8.15;7.38;;;22.40;96.70;;;;;;5005287;28;20131;-74
2021/07/05 00:15:20;;;;;;;10.88;8.10;;;22.40;96.70;;;;;;5003921;28;20069;-74
2021/07/05 00:17:50;;;;;;;9.85;7.95;;;22.40;96.70;;;;;;5010743;28;20046;-73
2021/07/05 00:20:19;;;;;;;8.52;6.90;;;22.40;96.70;;;;;;5005503;28;20041;-74
2021/07/05 00:22:49;;;;;;;7.72;6.97;;;22.40;96.70;;;;;;5003871;28;20056;-72
2021/07/05 00:25:18;;;;;;;9.30;7.72;;;22.40;96.70;;;;;;5006284;28;20388;-74
2021/07/05 00:27:47;;;;;;;9.13;7.13;;;22.40;96.70;;;;;;5001760;28;20088;-73
2021/07/05 00:30:16;;;;;;;8.10;7.20;;;22.30;96.70;;;;;;5003488;28;20125;-74
2021/07/05 00:32:46;;;;;;;8.45;6.95;;;22.40;96.70;;;;;;5001847;28;20036;-73
2021/07/05 00:35:16;;;;;;;8.25;7.35;;;22.40;96.70;;;;;;5003258;28;20049;-74
2021/07/05 00:37:45;;;;;;;7.00;6.32;;;22.50;96.70;;;;;;5001135;28;20038;-74
2021/07/05 00:40:16;;;;;;;7.40;6.70;;;22.50;96.70;;;;;;5019926;28;20053;-74
2021/07/05 00:42:45;;;;;;;7.65;6.88;;;22.40;96.70;;;;;;5022581;28;20041;-73
2021/07/05 00:45:15;;;;;;;7.00;6.30;;;22.40;96.70;;;;;;5003984;28;20042;-74
2021/07/05 00:47:44;;;;;;;7.80;6.13;;;22.40;96.70;;;;;;5004345;28;20121;-74
2021/07/05 00:50:14;;;;;;;7.80;6.47;;;22.40;96.70;;;;;;5003256;28;20108;-73
2021/07/05 00:52:44;;;;;;;8.55;6.63;;;22.40;96.70;;;;;;5009408;28;20503;-73
2021/07/05 00:55:15;;;;;;;8.32;7.00;;;22.40;96.70;;;;;;5008346;28;20050;-74
2021/07/05 00:57:44;;;;;;;7.95;6.63;;;22.40;96.70;;;;;;4989893;28;20053;-74
2021/07/05 01:00:14;;;;;;;6.95;6.15;;;22.40;96.70;;;;;;5003923;28;20042;-74
2021/07/05 01:02:44;;;;;;;7.50;6.47;;;22.40;96.70;;;;;;5011113;28;20524;-74
2021/07/05 01:05:14;;;;;;;7.18;6.50;;;22.40;96.70;;;;;;5001430;28;20484;-74
2021/07/05 01:07:45;;;;;;;7.95;6.30;;;22.40;96.70;;;;;;5018995;28;20451;-74
2021/07/05 01:10:16;;;;;;;8.15;6.32;;;22.40;96.70;;;;;;5005942;28;20046;-75
2021/07/05 01:12:45;;;;;;;7.07;6.32;;;22.30;96.70;;;;;;5006785;28;20038;-74
2021/07/05 01:15:17;;;;;;;7.47;6.35;;;22.30;96.70;;;;;;5016658;28;20045;-74
2021/07/05 01:17:46;;;;;;;8.10;6.55;;;22.20;96.70;;;;;;5021008;28;20085;-73
2021/07/05 01:20:17;;;;;;;7.30;6.70;;;22.20;96.70;;;;;;5016902;28;20145;-74
2021/07/05 01:22:47;;;;;;;6.72;6.03;;;22.20;96.70;;;;;;5002052;28;20666;-74
2021/07/05 01:25:18;;;;;;;7.20;6.60;;;22.20;96.70;;;;;;5007065;28;20045;-74
2021/07/05 01:27:46;;;;;;;7.63;6.93;;;22.20;96.70;;;;;;5023498;28;20054;-74
2021/07/05 01:30:17;;;;;;;7.00;6.35;;;22.20;96.70;;;;;;5016611;28;20073;-74
2021/07/05 01:32:47;;;;;;;6.65;5.97;;;22.20;96.70;;;;;;5005554;28;20061;-74
2021/07/05 01:35:16;;;;;;;6.85;5.47;;;22.20;96.70;;;;;;5006521;28;20045;-74
2021/07/05 01:37:46;;;;;;;6.45;5.85;;;22.20;96.70;;;;;;5008324;28;20033;-74
2021/07/05 01:40:17;;;;;;;6.45;5.53;;;22.20;96.70;;;;;;5003541;28;20053;-74
2021/07/05 01:42:50;;;;;;;6.20;5.30;;;22.20;96.70;;;;;;5006772;28;20057;-74
2021/07/05 01:45:20;;;;;;;6.43;5.75;;;22.30;96.70;;;;;;5006974;28;20037;-74
2021/07/05 01:47:48;;;;;;;6.72;5.35;;;22.20;96.70;;;;;;5005953;28;20113;-74
2021/07/05 01:50:17;;;;;;;6.43;5.50;;;22.30;96.70;;;;;;5007126;28;20037;-74
2021/07/05 01:52:46;;;;;;;6.47;5.82;;;22.30;96.70;;;;;;5008482;28;20505;-74
2021/07/05 01:55:15;;;;;;;6.68;5.97;;;22.30;96.70;;;;;;5003438;28;20046;-73
2021/07/05 01:57:44;;;;;;;7.88;6.07;;;22.30;96.70;;;;;;5006361;28;20053;-74
2021/07/05 02:00:16;;;;;;;6.80;6.18;;;22.30;96.70;;;;;;5007638;28;20041;-74
2021/07/05 02:02:45;;;;;;;6.90;5.63;;;22.40;96.70;;;;;;5005580;28;20623;-74
2021/07/05 02:05:17;;;;;;;6.00;5.50;;;22.40;96.70;;;;;;5003966;28;20129;-74
2021/07/05 02:07:48;;;;;;;6.18;5.60;;;22.50;96.70;;;;;;5004476;28;20306;-74
2021/07/05 02:10:20;;;;;;;6.07;5.45;;;22.50;96.70;;;;;;5005723;28;20503;-74
2021/07/05 02:12:49;;;;;;;6.00;5.40;;;22.50;96.70;;;;;;5002445;28;20046;-75
2021/07/05 02:15:17;;;;;;;6.82;5.47;;;22.50;96.70;;;;;;5004821;28;20041;-75
2021/07/05 02:17:46;;;;;;;7.03;5.63;;;22.50;96.70;;;;;;5006495;28;20042;-75
2021/07/05 02:20:17;;;;;;;8.82;5.75;;;22.50;96.70;;;;;;5007516;28;20041;-75
2021/07/05 02:22:51;;;;;;;6.78;6.10;;;22.50;96.70;;;;;;5005797;28;20050;-75
2021/07/05 02:25:26;;;;;;;6.47;5.88;;;22.40;96.70;;;;;;5019477;28;20132;-75
2021/07/05 02:27:56;;;;;;;7.18;5.97;;;22.40;96.70;;;;;;5005720;28;20052;-75
2021/07/05 02:30:26;;;;;;;5.72;5.22;;;22.20;96.70;;;;;;5002638;28;20029;-75
2021/07/05 02:32:55;;;;;;;8.48;5.60;;;22.10;96.70;;;;;;5005282;28;20136;-75
2021/07/05 02:35:26;;;;;;;17.80;14.38;;;22.00;96.70;;;;;;5030909;28;20561;-75
2021/07/05 02:37:56;;;;;;;40.65;34.25;;;21.90;96.70;;;;;;5009425;28;20497;-75
2021/07/05 02:40:28;;;;;;;50.80;37.85;;;22.00;96.70;;;;;;5004628;28;20529;-75
2021/07/05 02:42:57;;;;;;;33.55;28.10;;;22.00;96.70;;;;;;5021653;28;20042;-75
2021/07/05 02:45:27;;;;;;;33.28;29.67;;;22.00;96.70;;;;;;5004463;28;20125;-75
2021/07/05 02:47:57;;;;;;;30.90;26.55;;;22.00;96.70;;;;;;5005085;28;20480;-75
2021/07/05 02:50:26;;;;;;;32.85;28.00;;;22.10;96.70;;;;;;5004091;28;20089;-75
2021/07/05 02:52:57;;;;;;;29.77;26.55;;;22.10;96.70;;;;;;5002400;28;20209;-75
2021/07/05 02:55:26;;;;;;;23.15;19.00;;;22.20;96.70;;;;;;5002641;28;20042;-75
2021/07/05 02:57:55;;;;;;;13.40;11.85;;;22.20;96.70;;;;;;5008150;28;20052;-75
2021/07/05 03:00:25;;;;;;;8.70;7.90;;;22.20;96.70;;;;;;5005136;28;20081;-75
2021/07/05 03:02:54;;;;;;;8.82;7.93;;;22.10;96.70;;;;;;5015256;28;20064;-75
2021/07/05 03:05:24;;;;;;;11.07;7.05;;;22.10;96.70;;;;;;5006552;28;20145;-74
2021/07/05 03:07:53;;;;;;;7.68;6.40;;;22.10;96.70;;;;;;5006294;28;20419;-74
2021/07/05 03:10:25;;;;;;;8.80;6.00;;;22.10;96.70;;;;;;5004450;28;20064;-74
2021/07/05 03:12:55;;;;;;;9.40;6.75;;;22.20;96.70;;;;;;5004257;28;20041;-74
2021/07/05 03:15:24;;;;;;;7.13;6.43;;;22.10;96.70;;;;;;5009514;28;20065;-74
2021/07/05 03:17:56;;;;;;;6.95;6.18;;;22.00;96.70;;;;;;5006992;28;20527;-74
2021/07/05 03:20:27;;;;;;;7.93;7.15;;;22.00;96.70;;;;;;5017908;28;20042;-74
2021/07/05 03:22:57;;;;;;;7.90;7.15;;;21.90;96.70;;;;;;4988984;28;20546;-74
2021/07/05 03:25:29;;;;;;;7.13;6.43;;;21.90;96.70;;;;;;5008653;28;20518;-74
2021/07/05 03:27:58;;;;;;;8.05;7.35;;;21.90;96.70;;;;;;5003283;28;21378;-74
2021/07/05 03:30:27;;;;;;;7.38;6.68;;;21.90;96.70;;;;;;5001617;28;20144;-74
2021/07/05 03:32:56;;;;;;;8.25;6.53;;;21.90;96.70;;;;;;5005115;28;20056;-74
2021/07/05 03:35:26;;;;;;;7.95;7.15;;;21.90;96.70;;;;;;5002830;28;20394;-74
2021/07/05 03:37:55;;;;;;;7.72;6.60;;;21.90;96.70;;;;;;5008935;28;20095;-74
2021/07/05 03:40:27;;;;;;;6.72;6.07;;;21.90;96.70;;;;;;5002158;28;20499;-74
2021/07/05 03:42:56;;;;;;;6.93;6.22;;;21.90;96.70;;;;;;5005213;28;20392;-74
2021/07/05 03:45:26;;;;;;;8.57;7.30;;;21.90;96.70;;;;;;5003676;28;20321;-74
2021/07/05 03:47:56;;;;;;;7.47;6.70;;;21.90;96.70;;;;;;5003654;28;20037;-74
2021/07/05 03:50:24;;;;;;;7.13;6.43;;;21.90;96.70;;;;;;5000677;28;20042;-74
2021/07/05 03:52:53;;;;;;;7.20;6.50;;;22.00;96.70;;;;;;5007652;28;20042;-74
2021/07/05 03:55:29;;;;;;;8.15;6.45;;;21.90;96.70;;;;;;5017811;28;20053;-74
2021/07/05 03:57:59;;;;;;;7.78;7.07;;;21.80;96.70;;;;;;5006196;28;20551;-74
2021/07/05 04:00:30;;;;;;;8.73;7.45;;;21.80;96.70;;;;;;5017374;28;20049;-74
2021/07/05 04:02:59;;;;;;;8.43;7.30;;;21.80;96.70;;;;;;5021227;28;20514;-74
2021/07/05 04:05:28;;;;;;;7.57;6.88;;;21.70;96.70;;;;;;5002654;28;20495;-74
2021/07/05 04:07:57;;;;;;;8.15;7.25;;;21.70;96.70;;;;;;5002226;28;20045;-74
2021/07/05 04:10:27;;;;;;;7.28;6.57;;;21.70;96.70;;;;;;5019138;28;20049;-74
2021/07/05 04:12:56;;;;;;;7.22;6.18;;;21.70;96.70;;;;;;5007984;28;20409;-74
2021/07/05 04:15:24;;;;;;;8.77;7.35;;;21.70;96.70;;;;;;5005574;28;20048;-74
2021/07/05 04:17:53;;;;;;;8.90;6.88;;;21.70;96.70;;;;;;5000394;28;20048;-74
2021/07/05 04:20:23;;;;;;;8.98;7.10;;;21.60;96.70;;;;;;5005283;28;20504;-74
2021/07/05 04:22:52;;;;;;;11.63;6.68;;;21.70;96.70;;;;;;5019709;28;20042;-74
2021/07/05 04:25:23;;;;;;;6.93;6.32;;;21.50;96.70;;;;;;5004278;28;20042;-74
2021/07/05 04:27:54;;;;;;;8.25;7.22;;;21.60;96.70;;;;;;4999697;28;20047;-74
2021/07/05 04:30:26;;;;;;;6.72;6.03;;;21.60;96.70;;;;;;5004176;28;20410;-73
2021/07/05 04:32:55;;;;;;;7.63;6.03;;;21.60;96.70;;;;;;4997864;28;20153;-75
2021/07/05 04:35:25;;;;;;;7.85;6.25;;;21.70;96.70;;;;;;5001308;28;20123;-75
2021/07/05 04:37:54;;;;;;;6.07;5.38;;;21.70;96.70;;;;;;4999397;28;20049;-74
2021/07/05 04:40:24;;;;;;;8.57;5.70;;;21.70;96.70;;;;;;5001248;28;20037;-74
2021/07/05 04:42:54;;;;;;;5.80;5.30;;;21.70;96.70;;;;;;5001537;28;20124;-74
2021/07/05 04:45:27;;;;;;;7.88;5.72;;;21.80;96.70;;;;;;5004226;28;20042;-74
2021/07/05 04:47:57;;;;;;;6.40;5.50;;;21.80;96.70;;;;;;5002804;28;20132;-74
2021/07/05 04:50:26;;;;;;;6.82;5.13;;;21.80;96.70;;;;;;4985790;28;20050;-74
2021/07/05 04:52:54;;;;;;;6.93;5.28;;;21.80;96.70;;;;;;5000443;28;20048;-74
2021/07/05 04:55:23;;;;;;;8.88;5.40;;;21.70;96.70;;;;;;5005202;28;20529;-74
2021/07/05 04:57:55;;;;;;;5.47;4.97;;;21.80;96.70;;;;;;5009229;28;21351;-74
2021/07/05 05:00:26;;;;;;;6.65;5.03;;;21.80;96.70;;;;;;5013039;28;20466;-74
2021/07/05 05:02:59;;;;;;;5.00;4.50;;;21.90;96.70;;;;;;5008272;28;20051;-74
2021/07/05 05:05:29;;;;;;;7.35;5.80;;;22.00;96.70;;;;;;5008210;28;20419;-74
2021/07/05 05:07:58;;;;;;;7.72;4.78;;;22.10;96.70;;;;;;5011350;28;20064;-74
2021/07/05 05:10:27;;;;;;;6.30;4.95;;;22.20;96.70;;;;;;5006000;28;20045;-74
2021/07/05 05:12:57;;;;;;;6.00;5.18;;;22.20;96.70;;;;;;5008437;28;20041;-74
2021/07/05 05:15:26;;;;;;;6.55;4.95;;;22.20;96.70;;;;;;5004484;28;20045;-74
2021/07/05 05:17:54;;;;;;;9.65;5.20;;;22.30;96.70;;;;;;5004654;28;20507;-74
2021/07/05 05:20:24;;;;;;;6.28;5.18;;;22.40;96.70;;;;;;5009211;28;20461;-74
2021/07/05 05:22:53;;;;;;;7.68;5.10;;;22.50;96.70;;;;;;5008301;28;20574;-74
2021/07/05 05:25:22;;;;;;;6.03;4.50;;;22.60;96.70;;;;;;4990156;28;20929;-74
2021/07/05 05:27:51;;;;;;;4.32;4.03;;;22.60;96.70;;;;;;5009361;28;20052;-74
2021/07/05 05:30:23;;;;;;;6.45;4.15;;;22.70;96.70;;;;;;5005871;28;20054;-75
2021/07/05 05:32:53;;;;;;;5.20;3.90;;;22.70;96.70;;;;;;5013266;28;20046;-75
2021/07/05 05:35:23;;;;;;;7.93;4.10;;;22.70;96.70;;;;;;5001171;28;20077;-74
2021/07/05 05:37:54;;;;;;;4.75;3.85;;;22.80;96.70;;;;;;5008116;28;20224;-75
2021/07/05 05:40:23;;;;;;;5.35;4.82;;;22.70;96.70;;;;;;5020824;28;20123;-74
2021/07/05 05:42:53;;;;;;;7.30;4.45;;;22.80;96.70;;;;;;5022155;28;20049;-74
2021/07/05 05:45:23;;;;;;;6.63;5.53;;;22.80;96.70;;;;;;5005998;28;20064;-75
2021/07/05 05:47:51;;;;;;;11.45;5.85;;;22.90;96.70;;;;;;5021135;28;20037;-74
2021/07/05 05:50:22;;;;;;;6.45;5.47;;;22.90;96.70;;;;;;5006726;28;20120;-75
2021/07/05 05:52:51;;;;;;;6.22;5.53;;;22.90;96.70;;;;;;5008595;28;20049;-74
2021/07/05 05:55:19;;;;;;;6.13;5.40;;;23.00;96.70;;;;;;5005075;28;20041;-74
2021/07/05 05:57:48;;;;;;;5.93;4.82;;;23.10;96.70;;;;;;5006666;28;20127;-74
2021/07/05 06:00:23;;;;;;;6.05;4.75;;;23.10;96.70;;;;;;5007053;28;20389;-75
2021/07/05 06:02:54;;;;;;;7.82;5.07;;;23.20;96.70;;;;;;5004630;28;20050;-74
2021/07/05 06:05:22;;;;;;;5.72;4.47;;;23.20;96.70;;;;;;4992256;28;20085;-74
2021/07/05 06:07:51;;;;;;;7.03;4.97;;;23.30;96.70;;;;;;5003517;28;20448;-75
2021/07/05 06:10:21;;;;;;;9.38;5.03;;;23.40;96.70;;;;;;5008210;28;20555;-74
2021/07/05 06:12:50;;;;;;;9.00;4.80;;;23.40;96.70;;;;;;5000734;28;20049;-74
2021/07/05 06:15:20;;;;;;;8.68;5.13;;;23.50;96.70;;;;;;5008513;28;20052;-75
2021/07/05 06:17:50;;;;;;;8.35;4.75;;;23.60;96.70;;;;;;5005069;28;20138;-74
2021/07/05 06:20:20;;;;;;;5.85;3.72;;;23.60;96.70;;;;;;5005005;28;20041;-74
2021/07/05 06:23:16;;;;;;;5.05;4.55;;;23.70;96.70;;;;;;5007081;28;20487;-75
2021/07/05 06:25:45;;;;;;;8.90;4.75;;;23.60;96.70;;;;;;5006156;28;20049;-74
2021/07/05 06:28:13;;;;;;;7.35;5.10;;;23.60;96.70;;;;;;5004646;28;20037;-74
2021/07/05 06:30:42;;;;;;;12.63;5.82;;;23.70;96.70;;;;;;5004625;28;20502;-75
2021/07/05 06:33:11;;;;;;;9.60;4.55;;;23.80;96.70;;;;;;5005508;28;20061;-74
2021/07/05 06:35:41;;;;;;;6.45;4.50;;;23.90;96.70;;;;;;5004655;28;20037;-74
2021/07/05 06:38:10;;;;;;;6.40;3.95;;;23.80;96.70;;;;;;4998702;28;20057;-74
2021/07/05 06:40:40;;;;;;;7.85;4.93;;;23.80;96.70;;;;;;5011904;28;20045;-74
2021/07/05 06:43:09;;;;;;;4.72;3.70;;;23.90;96.70;;;;;;5002346;28;20562;-74
2021/07/05 06:45:37;;;;;;;4.70;3.78;;;23.90;96.70;;;;;;5023023;28;20049;-74
2021/07/05 06:48:06;;;;;;;8.35;4.35;;;24.00;96.70;;;;;;5016951;28;20053;-74
2021/07/05 06:50:44;;;;;;;6.95;4.25;;;24.00;96.70;;;;;;5006372;28;20077;-75
2021/07/05 06:53:13;;;;;;;6.07;4.20;;;24.00;96.70;;;;;;5005002;28;20049;-74
2021/07/05 06:55:42;;;;;;;6.60;4.50;;;24.00;96.70;;;;;;5006719;28;20317;-75
2021/07/05 06:58:10;;;;;;;4.85;4.13;;;24.10;96.70;;;;;;5003650;28;20522;-74
2021/07/05 07:00:39;;;;;;;5.60;4.47;;;24.20;96.70;;;;;;5005945;28;20042;-74
2021/07/05 07:03:07;;;;;;;6.15;3.80;;;24.30;96.70;;;;;;5008039;28;20046;-74
2021/07/05 07:05:35;;;;;;;4.70;4.00;;;24.30;96.70;;;;;;5005747;28;20507;-75
2021/07/05 07:08:06;;;;;;;5.57;3.78;;;24.50;96.70;;;;;;5016407;28;20034;-75
2021/07/05 07:10:35;;;;;;;4.55;4.07;;;24.50;96.70;;;;;;5008020;28;20048;-75
2021/07/05 07:13:03;;;;;;;7.50;4.03;;;24.60;96.70;;;;;;5002926;28;20387;-75
2021/07/05 07:15:57;;;;;;;4.07;3.13;;;24.60;96.70;;;;;;5003932;28;20046;-74
2021/07/05 07:21:02;;;;;;;5.65;3.53;;;24.70;96.70;;;;;;5003892;28;20038;-74
2021/07/05 07:23:32;;;;;;;4.10;3.10;;;24.60;96.70;;;;;;5009166;28;20042;-74
2021/07/05 07:26:01;;;;;;;5.82;2.92;;;24.60;96.70;;;;;;5001909;28;20037;-75
2021/07/05 07:28:30;;;;;;;6.93;3.17;;;24.60;96.70;;;;;;5001476;28;20045;-75
2021/07/05 07:30:58;;;;;;;5.18;3.05;;;24.60;96.70;;;;;;5003443;28;20065;-74
2021/07/05 07:33:27;;;;;;;8.45;3.63;;;24.60;96.70;;;;;;4987197;28;20052;-75
2021/07/05 07:35:58;;;;;;;5.55;3.13;;;24.70;96.70;;;;;;5001399;28;20045;-74
2021/07/05 07:38:33;;;;;;;6.95;3.63;;;24.70;96.70;;;;;;5019292;28;20097;-74
2021/07/05 07:41:03;;;;;;;7.68;3.40;;;24.70;96.70;;;;;;5017990;28;20037;-74
2021/07/05 07:43:31;;;;;;;5.80;3.10;;;24.80;96.70;;;;;;5018059;28;20042;-76
2021/07/05 07:46:00;;;;;;;4.13;2.85;;;24.80;96.70;;;;;;5005606;28;20131;-74
2021/07/05 07:48:28;;;;;;;6.18;2.90;;;24.90;96.70;;;;;;5004428;28;20041;-75
2021/07/05 07:50:57;;;;;;;5.20;2.72;;;24.90;96.70;;;;;;4983578;28;20053;-76
2021/07/05 07:53:25;;;;;;;6.13;2.65;;;25.00;96.70;;;;;;5007559;28;20069;-76
2021/07/05 07:55:54;;;;;;;5.88;3.05;;;25.10;96.70;;;;;;5000845;28;20084;-75
2021/07/05 07:58:23;;;;;;;8.05;3.15;;;25.10;96.70;;;;;;5000817;28;20038;-75
2021/07/05 08:00:52;;;;;;;8.48;3.20;;;25.20;96.70;;;;;;5016249;28;20046;-75
2021/07/05 08:03:21;;;;;;;6.88;3.13;;;25.20;96.70;;;;;;5006342;28;20698;-76
2021/07/05 08:05:50;;;;;;;6.05;2.65;;;25.30;96.70;;;;;;5006565;28;20041;-76
2021/07/05 08:08:19;;;;;;;7.22;3.00;;;25.40;96.70;;;;;;5004265;28;20037;-76
2021/07/05 08:10:47;;;;;;;6.57;3.30;;;25.60;96.70;;;;;;5002468;28;20484;-75
2021/07/05 08:13:16;;;;;;;7.82;3.05;;;25.60;96.70;;;;;;4998009;28;20042;-75
2021/07/05 08:15:52;;;;;;;10.95;3.22;;;25.70;96.70;;;;;;5003313;28;20759;-75
2021/07/05 08:18:21;;;;;;;6.22;3.08;;;25.80;96.70;;;;;;4999502;28;20591;-75
2021/07/05 08:20:50;;;;;;;7.93;2.80;;;25.90;96.70;;;;;;4997948;28;20074;-74
2021/07/05 08:23:18;;;;;;;8.48;2.92;;;26.10;96.70;;;;;;5002778;28;20042;-75
2021/07/05 08:25:47;;;;;;;6.72;2.72;;;26.00;96.70;;;;;;4999005;28;20056;-74
2021/07/05 08:28:15;;;;;;;8.13;2.80;;;26.00;96.70;;;;;;5017270;28;20099;-75
2021/07/05 08:30:46;;;;;;;8.25;3.00;;;26.10;96.70;;;;;;5002074;28;20104;-75
2021/07/05 08:33:18;;;;;;;5.70;2.78;;;26.10;96.70;;;;;;5004250;28;20506;-75
2021/07/05 08:35:47;;;;;;;6.88;3.05;;;26.10;96.70;;;;;;5010601;28;20057;-74
2021/07/05 08:38:16;;;;;;;7.30;2.80;;;26.00;96.70;;;;;;5009091;28;20092;-76
2021/07/05 08:40:44;;;;;;;4.88;3.25;;;26.00;96.70;;;;;;5010256;28;21126;-75
2021/07/05 08:43:12;;;;;;;6.75;3.10;;;26.00;96.70;;;;;;4988741;28;20458;-76
2021/07/05 08:45:43;;;;;;;5.35;2.42;;;26.00;96.70;;;;;;5006524;28;20159;-76
2021/07/05 08:48:14;;;;;;;4.95;2.45;;;26.00;96.70;;;;;;5007746;28;20057;-76
2021/07/05 08:50:43;;;;;;;5.30;2.33;;;26.10;96.70;;;;;;5008763;28;20050;-76
2021/07/05 08:53:11;;;;;;;5.68;2.30;;;26.30;96.70;;;;;;4989955;28;20049;-75
2021/07/05 08:55:40;;;;;;;5.20;2.10;;;26.50;96.70;;;;;;5008888;28;20503;-75
2021/07/05 08:58:08;;;;;;;11.95;3.50;;;26.60;96.70;;;;;;5008823;28;21442;-77
2021/07/05 09:00:36;;;;;;;6.07;2.38;;;26.70;96.70;;;;;;5009689;28;20381;-76
2021/07/05 09:03:05;;;;;;;3.75;1.95;;;26.50;96.70;;;;;;5007341;28;20132;-76
2021/07/05 09:05:34;;;;;;;4.18;2.00;;;26.50;96.70;;;;;;5012104;28;20041;-76
2021/07/05 09:08:05;;;;;;;3.10;1.65;;;26.60;96.70;;;;;;5001942;28;20056;-77
2021/07/05 09:10:48;;;;;;;5.93;1.90;;;26.70;96.70;;;;;;5005272;28;20041;-76
2021/07/05 09:13:19;;;;;;;6.53;2.50;;;26.70;96.70;;;;;;5006797;28;20041;-76
2021/07/05 09:15:49;;;;;;;4.50;2.00;;;26.80;96.70;;;;;;5007318;28;20052;-77
2021/07/05 09:18:26;;;;;;;5.15;2.05;;;26.90;96.70;;;;;;5009174;28;20099;-76
2021/07/05 09:21:08;;;;;;;8.05;2.03;;;26.90;96.70;;;;;;5004583;28;20048;-76
2021/07/05 09:23:42;;;;;;;4.80;2.10;;;27.00;96.70;;;;;;5005212;28;20052;-77
2021/07/05 09:26:18;;;;;;;3.85;2.03;;;27.20;96.70;;;;;;5008310;28;20419;-77
2021/07/05 09:28:46;;;;;;;5.87;2.10;;;27.20;96.70;;;;;;5003387;28;20053;-76
2021/07/05 09:31:26;;;;;;;7.07;2.42;;;27.20;96.70;;;;;;5006328;28;20044;-77
2021/07/05 09:33:54;;;;;;;5.45;2.25;;;27.10;96.70;;;;;;5008720;28;20050;-75
2021/07/05 09:36:25;;;;;;;3.38;1.77;;;27.00;96.70;;;;;;5020376;28;20096;-75
2021/07/05 09:38:53;;;;;;;5.45;2.10;;;27.20;96.70;;;;;;5006962;28;20061;-76
2021/07/05 09:41:24;;;;;;;2.97;1.80;;;27.20;96.70;;;;;;5010534;28;20052;-75
2021/07/05 09:43:55;;;;;;;7.22;2.53;;;27.30;96.70;;;;;;5004000;28;20053;-76
2021/07/05 09:46:36;;;;;;;6.32;2.65;;;27.40;96.70;;;;;;4985606;28;20042;-75
2021/07/05 09:49:19;;;;;;;5.00;1.65;;;27.50;96.70;;;;;;5000162;28;20081;-76
2021/07/05 09:52:07;;;;;;;3.47;1.45;;;27.60;96.70;;;;;;5007033;28;20044;-75
2021/07/05 09:54:36;;;;;;;3.17;1.48;;;27.70;95.90;;;;;;5007377;28;20428;-76
2021/07/05 09:57:24;;;;;;;2.72;1.55;;;27.70;95.80;;;;;;5004296;28;20443;-76
2021/07/05 09:59:55;;;;;;;4.55;1.90;;;27.70;96.30;;;;;;5001016;28;20054;-73
2021/07/05 10:02:23;;;;;;;6.63;1.67;;;27.80;96.00;;;;;;5005852;28;20268;-76
2021/07/05 10:05:11;;;;;;;3.63;1.40;;;27.70;96.10;;;;;;4999149;28;20042;-75
2021/07/05 10:07:41;;;;;;;4.65;1.60;;;27.80;96.10;;;;;;5005457;28;20049;-75
2021/07/05 10:10:12;;;;;;;6.65;1.83;;;27.70;95.20;;;;;;5005699;28;20153;-76
2021/07/05 10:12:50;;;;;;;3.25;1.35;;;27.70;95.90;;;;;;5013280;28;20038;-76
2021/07/05 10:15:19;;;;;;;2.60;1.33;;;27.80;94.00;;;;;;5004688;28;20059;-76
2021/07/05 10:17:49;;;;;;;5.05;1.20;;;27.80;93.40;;;;;;5004518;28;20400;-74
2021/07/05 10:20:20;;;;;;;5.38;1.27;;;28.00;92.50;;;;;;5002268;28;20496;-75
2021/07/05 10:22:52;;;;;;;5.15;0.98;;;28.20;92.10;;;;;;5005618;28;20045;-75
2021/07/05 10:25:22;;;;;;;4.25;1.17;;;28.20;92.40;;;;;;5018938;28;20475;-75
2021/07/05 10:27:50;;;;;;;3.53;0.80;;;28.20;92.00;;;;;;5003597;28;20046;-75
2021/07/05 10:30:20;;;;;;;4.00;1.20;;;28.20;91.80;;;;;;5003777;28;20038;-75
2021/07/05 10:32:49;;;;;;;4.60;1.10;;;28.30;91.10;;;;;;5007631;28;20042;-75
2021/07/05 10:35:21;;;;;;;5.35;1.30;;;28.40;91.30;;;;;;5008382;28;20076;-76
2021/07/05 10:37:54;;;;;;;4.07;1.10;;;28.50;89.50;;;;;;5004484;28;20400;-76
2021/07/05 10:40:26;;;;;;;4.32;0.90;;;28.50;89.60;;;;;;5003331;28;20042;-76
2021/07/05 10:42:56;;;;;;;2.55;1.08;;;28.70;88.80;;;;;;5018833;28;20045;-76
2021/07/05 10:45:38;;;;;;;4.28;0.80;;;28.70;88.20;;;;;;5000532;28;20077;-75
2021/07/05 10:48:08;;;;;;;2.45;1.10;;;28.80;87.00;;;;;;5003899;28;20112;-76
2021/07/05 10:50:45;;;;;;;2.20;0.90;;;28.80;87.80;;;;;;5019526;28;20048;-76
2021/07/05 10:53:18;;;;;;;2.88;1.10;;;28.90;87.30;;;;;;4987241;28;20112;-76
2021/07/05 10:55:47;;;;;;;3.67;1.20;;;28.80;88.30;;;;;;5005092;28;20054;-76
2021/07/05 10:58:25;;;;;;;4.75;0.93;;;28.80;88.70;;;;;;5002601;28;20853;-76
2021/07/05 11:00:55;;;;;;;3.17;1.10;;;28.90;87.90;;;;;;5006885;28;20042;-76
2021/07/05 11:03:46;;;;;;;4.25;1.25;;;28.80;86.70;;;;;;5005885;28;20046;-76
2021/07/05 11:06:40;;;;;;;2.38;1.10;;;28.80;88.00;;;;;;5000502;28;20048;-76
2021/07/05 11:09:10;;;;;;;2.28;0.90;;;29.00;88.60;;;;;;5005158;28;20372;-76
2021/07/05 11:11:47;;;;;;;3.40;1.05;;;29.10;87.20;;;;;;5008909;28;20467;-76
2021/07/05 11:14:20;;;;;;;2.10;1.10;;;29.10;88.10;;;;;;5002829;28;20038;-75
2021/07/05 11:16:54;;;;;;;3.10;1.20;;;29.10;87.60;;;;;;5016356;28;20137;-75
2021/07/05 11:19:38;;;;;;;3.03;0.95;;;29.20;87.30;;;;;;5003009;28;20141;-76
2021/07/05 11:22:12;;;;;;;4.47;1.42;;;29.20;87.50;;;;;;5002775;28;20045;-76
2021/07/05 11:24:53;;;;;;;2.00;1.20;;;29.20;87.10;;;;;;5021328;28;20125;-76
2021/07/05 11:27:46;;;;;;;2.10;0.82;;;29.40;87.90;;;;;;5006588;28;20380;-75
2021/07/05 11:30:29;;;;;;;3.72;0.95;;;29.50;87.30;;;;;;4998836;28;20045;-75
2021/07/05 11:33:04;;;;;;;2.55;0.93;;;29.60;86.70;;;;;;5000371;28;20129;-75
2021/07/05 11:35:41;;;;;;;2.08;0.98;;;29.40;87.50;;;;;;5001784;28;20034;-75
2021/07/05 11:38:22;;;;;;;3.05;1.27;;;29.60;86.50;;;;;;5002352;28;20448;-76
2021/07/05 11:40:54;;;;;;;1.95;0.70;;;29.70;86.30;;;;;;4996459;28;20685;-76
2021/07/05 11:43:47;;;;;;;1.40;0.90;;;29.70;84.20;;;;;;5008482;28;20491;-76
2021/07/05 11:46:17;;;;;;;5.07;1.00;;;29.60;83.90;;;;;;5004852;28;20420;-76
2021/07/05 11:48:56;;;;;;;5.18;0.90;;;29.70;84.60;;;;;;5005294;28;20132;-76
2021/07/05 11:51:28;;;;;;;2.70;1.30;;;29.60;85.10;;;;;;5004580;28;20037;-76
2021/07/05 11:53:59;;;;;;;1.92;0.90;;;29.80;85.50;;;;;;5001529;28;20855;-76
2021/07/05 11:56:34;;;;;;;4.68;1.20;;;29.90;84.70;;;;;;5004895;28;20100;-76
2021/07/05 11:59:04;;;;;;;4.07;1.02;;;30.10;85.30;;;;;;5004384;28;20053;-76
2021/07/05 12:01:33;;;;;;;1.65;0.70;;;30.20;84.70;;;;;;5008146;28;20038;-76
2021/07/05 12:04:04;;;;;;;2.05;0.80;;;30.30;84.60;;;;;;5003614;28;20048;-76
2021/07/05 12:06:34;;;;;;;2.28;0.85;;;30.30;83.50;;;;;;5004338;28;20419;-76
2021/07/05 12:09:04;;;;;;;1.90;0.90;;;30.40;82.40;;;;;;5004082;28;20042;-76
2021/07/05 12:11:37;;;;;;;3.90;0.77;;;30.30;82.70;;;;;;5012629;28;20092;-75
2021/07/05 12:14:14;;;;;;;3.42;1.00;;;30.40;83.00;;;;;;5005917;28;20143;-75
2021/07/05 12:16:45;;;;;;;1.48;0.80;;;30.50;82.90;;;;;;5020347;28;20038;-75
2021/07/05 12:19:13;;;;;;;2.88;0.70;;;30.70;82.80;;;;;;5006134;28;20704;-76
2021/07/05 12:21:45;;;;;;;4.10;1.15;;;30.70;82.90;;;;;;4987879;28;20042;-76
2021/07/05 12:24:25;;;;;;;1.88;0.88;;;30.80;82.40;;;;;;5004392;28;20038;-76
2021/07/05 12:26:57;;;;;;;2.55;0.70;;;30.70;81.70;;;;;;4986185;28;20046;-76
2021/07/05 12:29:30;;;;;;;2.88;0.90;;;30.40;81.40;;;;;;5003284;28;20506;-76
2021/07/05 12:32:12;;;;;;;2.15;0.70;;;30.70;82.00;;;;;;5021120;28;20107;-76
2021/07/05 12:35:01;;;;;;;1.77;0.82;;;30.80;81.10;;;;;;5004999;28;20057;-75
2021/07/05 12:37:36;;;;;;;2.33;0.90;;;30.80;79.90;;;;;;5006726;28;20511;-77
2021/07/05 12:40:15;;;;;;;3.22;0.80;;;30.70;79.90;;;;;;5004013;28;20038;-76
2021/07/05 12:42:46;;;;;;;3.33;0.85;;;30.70;80.00;;;;;;5003724;28;20258;-76
2021/07/05 12:45:22;;;;;;;2.40;0.70;;;30.70;80.70;;;;;;5002121;28;20038;-76
2021/07/05 12:47:53;;;;;;;3.33;1.00;;;30.70;80.60;;;;;;4997187;28;20076;-76
2021/07/05 12:50:24;;;;;;;1.65;0.70;;;30.70;80.50;;;;;;5010595;28;20129;-76
2021/07/05 12:53:01;;;;;;;1.10;0.80;;;30.80;79.90;;;;;;5002136;28;20061;-75
2021/07/05 12:55:29;;;;;;;4.07;0.90;;;30.80;79.60;;;;;;4980499;28;20523;-76
2021/07/05 12:57:59;;;;;;;3.30;0.70;;;30.80;79.30;;;;;;5009564;28;20042;-76
2021/07/05 13:00:28;;;;;;;3.20;1.13;;;30.90;79.30;;;;;;5007030;28;20077;-76
2021/07/05 13:03:09;;;;;;;2.15;0.88;;;31.10;80.10;;;;;;5000236;28;20049;-76
2021/07/05 13:05:38;;;;;;;3.67;0.73;;;30.90;80.40;;;;;;5018813;28;20104;-76
2021/07/05 13:08:07;;;;;;;2.05;0.80;;;31.00;79.70;;;;;;5006497;28;20120;-76